createdAt,value
2019-04-06T00:00:36.424Z,73.43
2019-04-06T00:01:36.455Z,73.54
2019-04-06T00:02:36.405Z,73.85
2019-04-06T00:03:36.398Z,74.05
2019-04-06T00:04:36.435Z,74.05
2019-04-06T00:05:36.371Z,74.05
2019-04-06T00:06:36.396Z,74.16
2019-04-06T00:07:36.359Z,73.85
2019-04-06T00:08:36.341Z,73.71
2019-04-06T00:09:36.361Z,73.30
2019-04-06T00:10:36.336Z,73.40
2019-04-06T00:11:36.312Z,73.30
2019-04-06T00:12:36.292Z,73.50
2019-04-06T00:13:36.283Z,73.71
2019-04-06T00:14:36.302Z,73.81
2019-04-06T00:15:36.264Z,73.71
2019-04-06T00:16:36.266Z,73.64
2019-04-06T00:17:36.251Z,73.74
2019-04-06T00:18:36.237Z,73.74
2019-04-06T00:19:36.260Z,73.54
2019-04-06T00:20:36.211Z,73.43
2019-04-06T00:21:36.205Z,73.43
2019-04-06T00:22:36.199Z,73.85
2019-04-06T00:23:36.179Z,74.05
2019-04-06T00:24:36.210Z,74.16
2019-04-06T00:25:44.267Z,74.26
2019-04-06T00:26:37.147Z,74.36
2019-04-06T00:27:36.926Z,74.16
2019-04-06T00:28:36.123Z,73.64
2019-04-06T00:29:36.152Z,73.95
2019-04-06T00:30:36.128Z,73.64
2019-04-06T00:31:36.123Z,73.74
2019-04-06T00:32:36.072Z,73.95
2019-04-06T00:33:36.092Z,73.95
2019-04-06T00:34:36.061Z,73.74
2019-04-06T00:35:36.044Z,73.95
2019-04-06T00:36:36.086Z,74.05
2019-04-06T00:37:36.026Z,74.05
2019-04-06T00:38:36.011Z,73.74
2019-04-06T00:39:36.002Z,73.74
2019-04-06T00:40:36.019Z,73.64
2019-04-06T00:41:35.981Z,73.85
2019-04-06T00:42:35.962Z,74.05
2019-04-06T00:43:35.962Z,73.95
2019-04-06T00:44:35.942Z,73.85
2019-04-06T00:45:35.984Z,73.85
2019-04-06T00:46:35.920Z,74.16
2019-04-06T00:47:35.966Z,74.26
2019-04-06T00:48:35.897Z,74.46
2019-04-06T00:49:35.901Z,74.26
2019-04-06T00:50:35.882Z,74.16
2019-04-06T00:51:35.881Z,74.16
2019-04-06T00:52:35.896Z,73.95
2019-04-06T00:53:35.851Z,74.08
2019-04-06T00:54:35.830Z,74.19
2019-04-06T00:55:35.850Z,74.40
2019-04-06T00:56:35.810Z,74.71
2019-04-06T00:57:35.801Z,75.01
2019-04-06T00:58:35.820Z,74.91
2019-04-06T00:59:35.778Z,75.12
2019-04-06T01:00:35.770Z,75.01
2019-04-06T01:01:35.760Z,75.01
2019-04-06T01:02:35.749Z,75.12
2019-04-06T01:03:35.762Z,74.91
2019-04-06T01:04:35.730Z,75.01
2019-04-06T01:05:35.733Z,74.91
2019-04-06T01:06:35.739Z,75.01
2019-04-06T01:07:35.728Z,75.01
2019-04-06T01:08:35.779Z,75.12
2019-04-06T01:09:35.675Z,75.12
2019-04-06T01:10:35.670Z,75.01
2019-04-06T01:11:35.650Z,74.91
2019-04-06T01:12:35.648Z,75.01
2019-04-06T01:13:35.660Z,75.22
2019-04-06T01:14:35.649Z,75.22
2019-04-06T01:15:35.655Z,75.22
2019-04-06T01:16:35.608Z,75.01
2019-04-06T01:17:35.611Z,75.12
2019-04-06T01:18:35.588Z,75.12
2019-04-06T01:19:35.559Z,75.01
2019-04-06T01:20:35.598Z,75.22
2019-04-06T01:21:35.541Z,75.22
2019-04-06T01:22:35.559Z,75.12
2019-04-06T01:23:35.511Z,75.22
2019-04-06T01:24:35.512Z,75.36
2019-04-06T01:25:35.492Z,75.46
2019-04-06T01:26:35.479Z,75.56
2019-04-06T01:27:35.513Z,75.56
2019-04-06T01:28:35.468Z,75.56
2019-04-06T01:29:35.450Z,75.56
2019-04-06T01:30:35.468Z,75.77
2019-04-06T01:31:35.426Z,75.46
2019-04-06T01:32:35.428Z,75.67
2019-04-06T01:33:35.411Z,75.98
2019-04-06T01:34:35.430Z,75.98
2019-04-06T01:35:35.389Z,75.87
2019-04-06T01:36:35.369Z,75.77
2019-04-06T01:37:35.371Z,75.67
2019-04-06T01:38:35.350Z,75.98
2019-04-06T01:39:35.379Z,75.87
2019-04-06T01:40:35.328Z,75.98
2019-04-06T01:41:35.320Z,75.87
2019-04-06T01:42:35.312Z,75.67
2019-04-06T01:43:35.345Z,75.67
2019-04-06T01:44:35.348Z,75.67
2019-04-06T01:45:35.283Z,75.67
2019-04-06T01:46:35.265Z,75.67
2019-04-06T01:47:35.287Z,75.87
2019-04-06T01:48:35.343Z,75.98
2019-04-06T01:49:35.228Z,76.29
2019-04-06T01:50:35.241Z,76.08
2019-04-06T01:51:35.210Z,75.87
2019-04-06T01:52:35.199Z,75.98
2019-04-06T01:53:35.213Z,75.77
2019-04-06T01:54:35.188Z,75.87
2019-04-06T01:55:35.289Z,76.08
2019-04-06T01:56:35.187Z,75.98
2019-04-06T01:57:35.190Z,76.18
2019-04-06T01:58:35.182Z,76.49
2019-04-06T01:59:35.127Z,76.18
2019-04-06T02:00:35.158Z,76.08
2019-04-06T02:01:35.137Z,76.39
2019-04-06T02:02:35.088Z,76.18
2019-04-06T02:03:35.086Z,76.29
2019-04-06T02:04:35.090Z,76.39
2019-04-06T02:05:35.097Z,76.49
2019-04-06T02:06:35.588Z,76.49
2019-04-06T02:07:35.037Z,76.39
2019-04-06T02:08:35.035Z,76.49
2019-04-06T02:09:35.057Z,76.49
2019-04-06T02:10:35.063Z,76.29
2019-04-06T02:11:35.086Z,76.49
2019-04-06T02:12:34.976Z,76.49
2019-04-06T02:13:34.996Z,76.59
2019-04-06T02:14:34.966Z,76.49
2019-04-06T02:15:34.961Z,76.39
2019-04-06T02:16:34.976Z,76.49
2019-04-06T02:17:34.933Z,76.49
2019-04-06T02:18:34.947Z,76.29
2019-04-06T02:19:34.907Z,76.18
2019-04-06T02:20:34.887Z,76.39
2019-04-06T02:21:34.886Z,76.18
2019-04-06T02:22:34.877Z,76.29
2019-04-06T02:23:34.886Z,76.18
2019-04-06T02:24:34.856Z,76.08
2019-04-06T02:25:34.836Z,76.18
2019-04-06T02:26:34.846Z,75.98
2019-04-06T02:27:34.856Z,75.98
2019-04-06T02:28:34.806Z,76.18
2019-04-06T02:29:34.801Z,76.15
2019-04-06T02:30:34.819Z,76.04
2019-04-06T02:31:34.785Z,75.94
2019-04-06T02:32:34.776Z,76.15
2019-04-06T02:33:34.757Z,76.15
2019-04-06T02:34:34.843Z,76.25
2019-04-06T02:35:34.798Z,75.94
2019-04-06T02:36:34.716Z,75.84
2019-04-06T02:37:34.705Z,75.73
2019-04-06T02:38:34.704Z,75.63
2019-04-06T02:39:34.695Z,76.04
2019-04-06T02:40:34.719Z,76.15
2019-04-06T02:41:34.667Z,76.04
2019-04-06T02:42:34.657Z,76.04
2019-04-06T02:43:34.647Z,76.15
2019-04-06T02:44:34.714Z,76.25
2019-04-06T02:45:34.741Z,76.35
2019-04-06T02:46:34.677Z,76.35
2019-04-06T02:47:34.598Z,76.25
2019-04-06T02:48:34.762Z,75.94
2019-04-06T02:49:34.606Z,75.84
2019-04-06T02:50:34.568Z,75.53
2019-04-06T02:51:34.561Z,75.73
2019-04-06T02:52:34.687Z,75.73
2019-04-06T02:53:34.557Z,75.53
2019-04-06T02:54:34.517Z,75.84
2019-04-06T02:55:34.538Z,75.73
2019-04-06T02:56:45.590Z,75.73
2019-04-06T02:57:35.549Z,75.56
2019-04-06T02:58:34.625Z,75.87
2019-04-06T02:59:34.468Z,75.77
2019-04-06T03:00:34.454Z,75.98
2019-04-06T03:01:34.444Z,75.87
2019-04-06T03:02:34.444Z,76.08
2019-04-06T03:03:34.525Z,76.39
2019-04-06T03:04:34.474Z,76.08
2019-04-06T03:05:34.402Z,76.18
2019-04-06T03:06:34.386Z,76.59
2019-04-06T03:07:34.383Z,76.59
2019-04-06T03:08:34.421Z,76.59
2019-04-06T03:09:34.398Z,76.70
2019-04-06T03:10:34.466Z,76.80
2019-04-06T03:11:34.330Z,76.59
2019-04-06T03:12:34.323Z,76.63
2019-04-06T03:13:34.494Z,76.63
2019-04-06T03:14:34.332Z,76.63
2019-04-06T03:15:34.296Z,76.73
2019-04-06T03:16:34.284Z,77.04
2019-04-06T03:17:34.351Z,76.84
2019-04-06T03:18:34.458Z,76.73
2019-04-06T03:19:34.245Z,76.94
2019-04-06T03:20:34.245Z,76.84
2019-04-06T03:21:34.221Z,76.73
2019-04-06T03:22:34.213Z,76.53
2019-04-06T03:23:49.218Z,76.53
2019-04-06T03:24:35.246Z,76.73
2019-04-06T03:25:34.191Z,76.84
2019-04-06T03:26:34.242Z,76.84
2019-04-06T03:27:34.162Z,76.94
2019-04-06T03:28:34.201Z,77.04
2019-04-06T03:29:34.180Z,77.35
2019-04-06T03:30:34.133Z,77.25
2019-04-06T03:31:34.242Z,77.35
2019-04-06T03:32:34.148Z,77.45
2019-04-06T03:33:34.412Z,77.35
2019-04-06T03:34:34.128Z,77.25
2019-04-06T03:35:34.151Z,77.45
2019-04-06T03:36:34.153Z,77.25
2019-04-06T03:37:34.057Z,77.35
2019-04-06T03:38:34.083Z,77.25
2019-04-06T03:39:34.031Z,77.45
2019-04-06T03:40:34.026Z,77.45
2019-04-06T03:41:34.092Z,77.25
2019-04-06T03:42:34.024Z,77.04
2019-04-06T03:43:34.474Z,77.25
2019-04-06T03:44:34.140Z,77.25
2019-04-06T03:45:33.963Z,76.84
2019-04-06T03:46:34.000Z,76.70
2019-04-06T03:47:34.079Z,76.59
2019-04-06T03:48:33.934Z,76.59
2019-04-06T03:49:34.051Z,76.59
2019-04-06T03:50:33.913Z,76.80
2019-04-06T03:51:33.946Z,76.90
2019-04-06T03:52:33.892Z,77.01
2019-04-06T03:53:33.900Z,76.70
2019-04-06T03:54:33.870Z,76.80
2019-04-06T03:55:33.881Z,76.80
2019-04-06T03:56:33.869Z,77.01
2019-04-06T03:57:33.825Z,77.11
2019-04-06T03:58:33.900Z,77.01
2019-04-06T03:59:33.854Z,77.04
2019-04-06T04:00:33.879Z,77.25
2019-04-06T04:01:33.841Z,77.01
2019-04-06T04:02:33.785Z,77.22
2019-04-06T04:03:33.771Z,77.11
2019-04-06T04:04:33.765Z,77.11
2019-04-06T04:05:33.930Z,77.22
2019-04-06T04:06:33.763Z,77.22
2019-04-06T04:07:33.724Z,77.31
2019-04-06T04:08:33.703Z,77.22
2019-04-06T04:09:33.712Z,77.11
2019-04-06T04:10:33.693Z,76.90
2019-04-06T04:11:33.897Z,76.90
2019-04-06T04:12:33.681Z,76.80
2019-04-06T04:13:33.693Z,77.01
2019-04-06T04:14:33.655Z,76.90
2019-04-06T04:15:33.740Z,77.01
2019-04-06T04:16:33.663Z,77.01
2019-04-06T04:17:33.867Z,77.01
2019-04-06T04:18:33.640Z,77.11
2019-04-06T04:19:33.592Z,76.80
2019-04-06T04:20:33.594Z,77.01
2019-04-06T04:21:33.571Z,76.90
2019-04-06T04:22:35.184Z,77.01
2019-04-06T04:23:33.609Z,77.11
2019-04-06T04:24:33.540Z,77.11
2019-04-06T04:25:33.542Z,77.01
2019-04-06T04:26:33.520Z,76.90
2019-04-06T04:27:33.500Z,76.90
2019-04-06T04:28:33.520Z,76.80
2019-04-06T04:29:33.480Z,76.70
2019-04-06T04:30:34.549Z,76.59
2019-04-06T04:31:34.050Z,76.80
2019-04-06T04:32:33.482Z,76.80
2019-04-06T04:33:33.457Z,76.59
2019-04-06T04:34:33.427Z,76.70
2019-04-06T04:35:33.640Z,76.90
2019-04-06T04:36:33.458Z,76.70
2019-04-06T04:37:33.395Z,76.46
2019-04-06T04:38:33.405Z,76.56
2019-04-06T04:39:33.551Z,76.35
2019-04-06T04:40:33.429Z,76.35
2019-04-06T04:41:33.349Z,76.35
2019-04-06T04:42:33.373Z,76.35
2019-04-06T04:43:33.367Z,76.76
2019-04-06T04:44:33.335Z,76.46
2019-04-06T04:45:33.463Z,76.35
2019-04-06T04:46:33.309Z,76.46
2019-04-06T04:47:33.280Z,76.46
2019-04-06T04:48:33.405Z,76.25
2019-04-06T04:49:33.258Z,76.35
2019-04-06T04:50:33.487Z,76.46
2019-04-06T04:51:33.280Z,76.46
2019-04-06T04:52:33.225Z,76.66
2019-04-06T04:53:33.216Z,76.66
2019-04-06T04:54:33.200Z,76.66
2019-04-06T04:55:33.383Z,76.66
2019-04-06T04:56:33.221Z,76.87
2019-04-06T04:57:40.142Z,76.76
2019-04-06T04:58:34.172Z,76.66
2019-04-06T04:59:33.179Z,76.66
2019-04-06T05:00:33.147Z,76.66
2019-04-06T05:01:33.140Z,76.87
2019-04-06T05:02:33.120Z,76.56
2019-04-06T05:03:33.324Z,76.56
2019-04-06T05:04:33.167Z,76.56
2019-04-06T05:05:33.156Z,76.56
2019-04-06T05:06:33.072Z,76.76
2019-04-06T05:07:33.090Z,76.46
2019-04-06T05:08:33.051Z,76.66
2019-04-06T05:09:33.115Z,76.66
2019-04-06T05:10:33.068Z,76.66
2019-04-06T05:11:33.045Z,76.46
2019-04-06T05:12:33.037Z,76.66
2019-04-06T05:13:33.039Z,76.56
2019-04-06T05:14:33.017Z,76.56
2019-04-06T05:15:32.999Z,76.66
2019-04-06T05:16:32.977Z,76.56
2019-04-06T05:17:32.961Z,76.66
2019-04-06T05:18:32.947Z,76.87
2019-04-06T05:19:32.929Z,76.87
2019-04-06T05:20:33.008Z,77.08
2019-04-06T05:21:32.975Z,77.08
2019-04-06T05:22:32.936Z,77.08
2019-04-06T05:23:32.887Z,76.97
2019-04-06T05:24:33.026Z,76.66
2019-04-06T05:25:32.899Z,77.08
2019-04-06T05:26:37.851Z,76.97
2019-04-06T05:27:33.839Z,76.97
2019-04-06T05:28:32.929Z,76.97
2019-04-06T05:29:33.347Z,76.87
2019-04-06T05:30:32.806Z,77.22
2019-04-06T05:31:32.898Z,77.52
2019-04-06T05:32:32.794Z,77.73
2019-04-06T05:33:32.777Z,77.59
2019-04-06T05:34:32.767Z,77.59
2019-04-06T05:35:32.757Z,77.48
2019-04-06T05:36:32.880Z,77.48
2019-04-06T05:37:32.747Z,77.08
2019-04-06T05:38:32.793Z,77.28
2019-04-06T05:39:32.737Z,77.28
2019-04-06T05:40:32.705Z,76.97
2019-04-06T05:41:32.698Z,77.52
2019-04-06T05:42:32.704Z,77.94
2019-04-06T05:43:32.960Z,78.24
2019-04-06T05:44:32.688Z,78.49
2019-04-06T05:45:32.660Z,78.49
2019-04-06T05:46:32.635Z,78.69
2019-04-06T05:47:32.652Z,78.69
2019-04-06T05:48:32.628Z,78.80
2019-04-06T05:49:32.671Z,79.00
2019-04-06T05:50:32.644Z,79.31
2019-04-06T05:51:32.631Z,79.31
2019-04-06T05:52:32.684Z,79.41
2019-04-06T05:53:32.612Z,79.21
2019-04-06T05:54:32.545Z,79.31
2019-04-06T05:55:32.578Z,79.11
2019-04-06T05:56:32.752Z,79.52
2019-04-06T05:57:32.819Z,80.07
2019-04-06T05:58:32.535Z,80.07
2019-04-06T05:59:32.505Z,80.18
2019-04-06T06:00:32.515Z,79.97
2019-04-06T06:01:32.507Z,79.97
2019-04-06T06:02:32.465Z,80.07
2019-04-06T06:03:32.525Z,80.18
2019-04-06T06:04:32.465Z,79.93
2019-04-06T06:05:32.434Z,79.97
2019-04-06T06:06:32.741Z,80.07
2019-04-06T06:07:32.425Z,80.24
2019-04-06T06:08:32.442Z,80.24
2019-04-06T06:09:32.451Z,80.04
2019-04-06T06:10:32.392Z,79.62
2019-04-06T06:11:32.376Z,79.62
2019-04-06T06:12:32.365Z,79.21
2019-04-06T06:13:32.381Z,79.31
2019-04-06T06:14:32.329Z,79.21
2019-04-06T06:15:32.333Z,79.17
2019-04-06T06:16:32.363Z,79.17
2019-04-06T06:17:32.352Z,79.38
2019-04-06T06:18:32.344Z,79.31
2019-04-06T06:19:32.298Z,79.21
2019-04-06T06:20:32.368Z,79.52
2019-04-06T06:21:32.265Z,79.52
2019-04-06T06:22:32.365Z,79.38
2019-04-06T06:23:32.319Z,79.38
2019-04-06T06:24:34.600Z,79.17
2019-04-06T06:25:32.205Z,78.97
2019-04-06T06:26:32.245Z,78.76
2019-04-06T06:27:32.238Z,78.52
2019-04-06T06:28:32.174Z,78.41
2019-04-06T06:29:32.264Z,78.11
2019-04-06T06:30:32.186Z,78.21
2019-04-06T06:31:32.184Z,78.21
2019-04-06T06:32:32.142Z,78.07
2019-04-06T06:33:33.014Z,77.97
2019-04-06T06:34:32.113Z,78.07
2019-04-06T06:35:32.132Z,77.55
2019-04-06T06:36:32.133Z,77.66
2019-04-06T06:37:32.105Z,77.66
2019-04-06T06:38:32.113Z,77.76
2019-04-06T06:39:32.053Z,77.80
2019-04-06T06:40:32.245Z,77.90
2019-04-06T06:41:32.056Z,78.21
2019-04-06T06:42:32.032Z,78.52
2019-04-06T06:43:32.043Z,79.07
2019-04-06T06:44:32.033Z,79.58
2019-04-06T06:45:31.989Z,79.90
2019-04-06T06:46:31.992Z,80.00
2019-04-06T06:47:32.076Z,80.20
2019-04-06T06:48:32.067Z,80.10
2019-04-06T06:49:32.047Z,79.79
2019-04-06T06:50:34.254Z,79.65
2019-04-06T06:51:31.935Z,79.34
2019-04-06T06:52:31.960Z,79.24
2019-04-06T06:53:31.912Z,79.34
2019-04-06T06:54:32.120Z,79.34
2019-04-06T06:55:31.922Z,79.14
2019-04-06T06:56:31.871Z,79.14
2019-04-06T06:57:31.953Z,79.10
2019-04-06T06:58:31.863Z,78.48
2019-04-06T06:59:32.512Z,78.07
2019-04-06T07:00:31.835Z,78.07
2019-04-06T07:01:31.822Z,78.07
2019-04-06T07:02:31.919Z,78.07
2019-04-06T07:03:31.889Z,78.38
2019-04-06T07:04:31.811Z,78.58
2019-04-06T07:05:31.813Z,78.38
2019-04-06T07:06:31.758Z,78.83
2019-04-06T07:07:31.948Z,79.14
2019-04-06T07:08:31.791Z,79.14
2019-04-06T07:09:31.997Z,79.03
2019-04-06T07:10:32.004Z,78.58
2019-04-06T07:11:31.913Z,78.52
2019-04-06T07:12:31.701Z,78.62
2019-04-06T07:13:31.714Z,78.93
2019-04-06T07:14:31.681Z,78.58
2019-04-06T07:15:31.765Z,78.48
2019-04-06T07:16:31.651Z,78.28
2019-04-06T07:17:31.702Z,77.83
2019-04-06T07:18:31.829Z,77.62
2019-04-06T07:19:31.618Z,77.72
2019-04-06T07:20:31.815Z,77.97
2019-04-06T07:21:31.591Z,78.52
2019-04-06T07:22:31.619Z,79.14
2019-04-06T07:23:31.572Z,79.14
2019-04-06T07:24:31.605Z,79.44
2019-04-06T07:25:31.590Z,79.65
2019-04-06T07:26:31.552Z,79.34
2019-04-06T07:27:31.539Z,79.34
2019-04-06T07:28:37.777Z,79.24
2019-04-06T07:29:32.510Z,78.89
2019-04-06T07:30:31.529Z,78.69
2019-04-06T07:31:31.491Z,78.28
2019-04-06T07:32:31.477Z,78.14
2019-04-06T07:33:31.528Z,78.30
2019-04-06T07:34:31.453Z,76.93
2019-04-06T07:35:31.449Z,75.39
2019-04-06T07:36:31.480Z,75.29
2019-04-06T07:37:31.436Z,75.59
2019-04-06T07:38:31.437Z,75.59
2019-04-06T07:39:31.409Z,75.84
2019-04-06T07:40:31.392Z,75.84
2019-04-06T07:41:31.409Z,76.14
2019-04-06T07:42:31.440Z,76.39
2019-04-06T07:43:31.378Z,77.11
2019-04-06T07:44:31.354Z,77.21
2019-04-06T07:45:31.330Z,77.11
2019-04-06T07:46:31.469Z,76.76
2019-04-06T07:47:31.569Z,76.66
2019-04-06T07:48:31.339Z,76.56
2019-04-06T07:49:31.312Z,77.00
2019-04-06T07:50:31.358Z,77.31
2019-04-06T07:51:31.380Z,76.86
2019-04-06T07:52:32.279Z,76.56
2019-04-06T07:53:31.240Z,76.25
2019-04-06T07:54:31.493Z,76.25
2019-04-06T07:55:31.219Z,76.04
2019-04-06T07:56:31.377Z,76.04
2019-04-06T07:57:31.230Z,75.94
2019-04-06T07:58:31.319Z,76.35
2019-04-06T07:59:31.343Z,76.25
2019-04-06T08:00:31.197Z,76.66
2019-04-06T08:01:31.295Z,76.66
2019-04-06T08:02:31.169Z,76.66
2019-04-06T08:03:31.319Z,76.66
2019-04-06T08:04:31.264Z,76.56
2019-04-06T08:05:31.119Z,76.76
2019-04-06T08:06:31.129Z,76.76
2019-04-06T08:07:31.205Z,76.42
2019-04-06T08:08:31.220Z,75.59
2019-04-06T08:09:31.162Z,75.39
2019-04-06T08:10:31.136Z,75.04
2019-04-06T08:11:31.048Z,74.74
2019-04-06T08:12:31.111Z,74.50
2019-04-06T08:13:31.025Z,74.08
2019-04-06T08:14:31.053Z,73.88
2019-04-06T08:15:31.120Z,73.33
2019-04-06T08:16:30.990Z,73.02
2019-04-06T08:17:31.002Z,72.82
2019-04-06T08:18:31.013Z,72.92
2019-04-06T08:19:31.084Z,72.61
2019-04-06T08:20:30.996Z,72.41
2019-04-06T08:21:31.186Z,72.27
2019-04-06T08:22:31.091Z,71.86
2019-04-06T08:23:30.919Z,71.11
2019-04-06T08:24:30.909Z,71.11
2019-04-06T08:25:30.936Z,70.46
2019-04-06T08:26:30.930Z,70.05
2019-04-06T08:27:30.879Z,69.71
2019-04-06T08:28:30.868Z,68.96
2019-04-06T08:29:30.859Z,67.16
2019-04-06T08:30:31.298Z,65.80
2019-04-06T08:31:30.929Z,64.40
2019-04-06T08:32:31.019Z,63.15
2019-04-06T08:33:30.928Z,62.48
2019-04-06T08:34:30.799Z,60.66
2019-04-06T08:35:30.799Z,58.36
2019-04-06T08:36:30.861Z,57.06
2019-04-06T08:37:31.025Z,56.21
2019-04-06T08:38:30.778Z,54.03
2019-04-06T08:39:30.761Z,53.55
2019-04-06T08:40:31.022Z,54.18
2019-04-06T08:41:30.764Z,56.76
2019-04-06T08:42:30.831Z,58.64
2019-04-06T08:43:30.900Z,59.08
2019-04-06T08:44:30.699Z,61.51
2019-04-06T08:45:30.770Z,63.92
2019-04-06T08:46:30.670Z,64.26
2019-04-06T08:47:30.652Z,64.57
2019-04-06T08:48:30.673Z,63.82
2019-04-06T08:49:30.680Z,63.15
2019-04-06T08:50:30.698Z,62.33
2019-04-06T08:51:30.784Z,62.95
2019-04-06T08:52:30.815Z,62.74
2019-04-06T08:53:30.700Z,60.82
2019-04-06T08:54:30.607Z,57.44
2019-04-06T08:55:30.617Z,57.04
2019-04-06T08:56:30.738Z,56.90
2019-04-06T08:57:30.574Z,55.05
2019-04-06T08:58:30.622Z,56.22
2019-04-06T08:59:30.579Z,56.09
2019-04-06T09:00:30.569Z,57.19
2019-04-06T09:01:30.507Z,59.18
2019-04-06T09:02:30.729Z,58.62
2019-04-06T09:03:30.474Z,57.24
2019-04-06T09:04:30.461Z,57.75
2019-04-06T09:05:30.495Z,54.69
2019-04-06T09:06:30.872Z,55.05
2019-04-06T09:07:30.431Z,56.42
2019-04-06T09:08:30.418Z,56.20
2019-04-06T09:09:30.454Z,55.22
2019-04-06T09:10:30.401Z,53.30
2019-04-06T09:11:30.382Z,51.01
2019-04-06T09:12:30.398Z,50.48
2019-04-06T09:13:30.389Z,49.67
2019-04-06T09:14:30.554Z,50.08
2019-04-06T09:15:30.361Z,48.94
2019-04-06T09:16:30.614Z,48.94
2019-04-06T09:17:30.351Z,51.37
2019-04-06T09:18:30.390Z,52.86
2019-04-06T09:19:30.350Z,54.97
2019-04-06T09:20:30.384Z,57.17
2019-04-06T09:21:30.301Z,58.14
2019-04-06T09:22:30.924Z,59.28
2019-04-06T09:23:30.277Z,60.13
2019-04-06T09:24:30.243Z,60.67
2019-04-06T09:25:30.293Z,60.94
2019-04-06T09:26:30.219Z,60.74
2019-04-06T09:27:30.211Z,60.71
2019-04-06T09:28:30.258Z,59.92
2019-04-06T09:29:30.239Z,60.57
2019-04-06T09:30:30.227Z,60.30
2019-04-06T09:31:30.296Z,59.39
2019-04-06T09:32:30.201Z,58.64
2019-04-06T09:33:30.141Z,58.85
2019-04-06T09:34:31.171Z,58.51
2019-04-06T09:35:30.181Z,57.37
2019-04-06T09:36:30.135Z,57.54
2019-04-06T09:37:30.114Z,57.82
2019-04-06T09:38:30.113Z,55.68
2019-04-06T09:39:30.079Z,56.20
2019-04-06T09:40:30.343Z,56.12
2019-04-06T09:41:30.460Z,57.17
2019-04-06T09:42:30.065Z,57.37
2019-04-06T09:43:30.045Z,56.42
2019-04-06T09:44:30.022Z,56.52
2019-04-06T09:45:30.044Z,57.17
2019-04-06T09:46:30.106Z,58.37
2019-04-06T09:47:30.330Z,58.87
2019-04-06T09:48:29.982Z,59.05
2019-04-06T09:49:30.191Z,58.64
2019-04-06T09:50:30.024Z,58.98
2019-04-06T09:51:30.162Z,59.26
2019-04-06T09:52:30.094Z,59.05
2019-04-06T09:53:29.940Z,59.16
2019-04-06T09:54:30.144Z,59.66
2019-04-06T09:55:29.923Z,58.92
2019-04-06T09:56:29.889Z,58.72
2019-04-06T09:57:29.915Z,58.28
2019-04-06T09:58:29.986Z,57.95
2019-04-06T09:59:35.812Z,57.65
2019-04-06T10:00:31.044Z,57.62
2019-04-06T10:01:37.985Z,56.27
2019-04-06T10:02:31.061Z,55.86
2019-04-06T10:03:29.811Z,57.06
2019-04-06T10:04:29.813Z,58.21
2019-04-06T10:05:29.813Z,58.31
2019-04-06T10:06:32.154Z,58.64
2019-04-06T10:07:29.782Z,59.36
2019-04-06T10:08:29.794Z,59.26
2019-04-06T10:09:29.835Z,58.92
2019-04-06T10:10:29.737Z,58.31
2019-04-06T10:11:29.747Z,58.01
2019-04-06T10:12:29.975Z,57.70
2019-04-06T10:13:29.796Z,57.57
2019-04-06T10:14:29.707Z,56.78
2019-04-06T10:15:29.679Z,57.70
2019-04-06T10:16:29.663Z,57.57
2019-04-06T10:17:29.681Z,56.73
2019-04-06T10:18:29.722Z,55.68
2019-04-06T10:19:29.671Z,55.79
2019-04-06T10:20:29.733Z,55.68
2019-04-06T10:21:30.781Z,55.48
2019-04-06T10:22:29.684Z,56.02
2019-04-06T10:23:29.583Z,56.20
2019-04-06T10:24:29.675Z,55.58
2019-04-06T10:25:29.897Z,55.38
2019-04-06T10:26:29.605Z,55.15
2019-04-06T10:27:29.561Z,55.41
2019-04-06T10:28:29.851Z,55.94
2019-04-06T10:29:29.551Z,56.24
2019-04-06T10:30:29.504Z,56.24
2019-04-06T10:31:29.493Z,56.55
2019-04-06T10:32:29.482Z,56.12
2019-04-06T10:33:29.516Z,56.02
2019-04-06T10:34:29.499Z,55.51
2019-04-06T10:35:29.449Z,55.28
2019-04-06T10:36:31.422Z,55.07
2019-04-06T10:37:29.428Z,54.97
2019-04-06T10:38:29.446Z,55.07
2019-04-06T10:39:29.628Z,54.97
2019-04-06T10:40:30.030Z,54.74
2019-04-06T10:41:29.419Z,54.54
2019-04-06T10:42:29.625Z,54.13
2019-04-06T10:43:29.407Z,54.54
2019-04-06T10:44:29.394Z,54.61
2019-04-06T10:45:29.350Z,54.11
2019-04-06T10:46:29.381Z,53.83
2019-04-06T10:47:29.315Z,54.87
2019-04-06T10:48:29.315Z,55.38
2019-04-06T10:49:29.335Z,55.28
2019-04-06T10:50:29.276Z,55.38
2019-04-06T10:51:29.416Z,55.28
2019-04-06T10:52:29.299Z,55.12
2019-04-06T10:53:29.451Z,54.61
2019-04-06T10:54:29.255Z,54.08
2019-04-06T10:55:29.285Z,54.31
2019-04-06T10:56:29.215Z,55.55
2019-04-06T10:57:29.213Z,55.79
2019-04-06T10:58:29.273Z,55.99
2019-04-06T10:59:29.187Z,55.66
2019-04-06T11:00:29.175Z,54.92
2019-04-06T11:01:29.164Z,54.18
2019-04-06T11:02:29.165Z,54.21
2019-04-06T11:03:29.147Z,54.72
2019-04-06T11:04:29.129Z,54.41
2019-04-06T11:05:29.126Z,54.72
2019-04-06T11:06:29.105Z,54.00
2019-04-06T11:07:29.150Z,53.67
2019-04-06T11:08:29.121Z,53.65
2019-04-06T11:09:29.298Z,53.37
2019-04-06T11:10:29.056Z,54.41
2019-04-06T11:11:29.166Z,54.28
2019-04-06T11:12:29.080Z,54.31
2019-04-06T11:13:29.037Z,54.72
2019-04-06T11:14:29.025Z,54.39
2019-04-06T11:15:29.362Z,54.21
2019-04-06T11:16:29.292Z,54.94
2019-04-06T11:17:29.143Z,55.12
2019-04-06T11:18:28.989Z,54.61
2019-04-06T11:19:28.995Z,55.12
2019-04-06T11:20:28.963Z,54.64
2019-04-06T11:21:28.959Z,54.94
2019-04-06T11:22:28.998Z,55.05
2019-04-06T11:23:29.078Z,54.82
2019-04-06T11:24:28.909Z,55.15
2019-04-06T11:25:28.915Z,55.55
2019-04-06T11:26:28.907Z,55.99
2019-04-06T11:27:28.927Z,55.99
2019-04-06T11:28:28.878Z,55.55
2019-04-06T11:29:28.855Z,55.46
2019-04-06T11:30:29.080Z,55.22
2019-04-06T11:31:28.852Z,54.69
2019-04-06T11:32:28.862Z,54.51
2019-04-06T11:33:28.994Z,54.94
2019-04-06T11:34:28.806Z,55.25
2019-04-06T11:35:28.796Z,55.25
2019-04-06T11:36:28.777Z,55.02
2019-04-06T11:37:28.901Z,55.35
2019-04-06T11:38:28.831Z,55.12
2019-04-06T11:39:28.767Z,54.69
2019-04-06T11:40:28.746Z,54.59
2019-04-06T11:41:28.791Z,54.49
2019-04-06T11:42:28.778Z,55.35
2019-04-06T11:43:28.726Z,55.76
2019-04-06T11:44:28.844Z,55.63
2019-04-06T11:45:28.720Z,55.20
2019-04-06T11:46:28.797Z,55.30
2019-04-06T11:47:28.796Z,54.79
2019-04-06T11:48:28.645Z,54.69
2019-04-06T11:49:28.647Z,54.79
2019-04-06T11:50:28.676Z,54.90
2019-04-06T11:51:28.803Z,54.69
2019-04-06T11:52:29.415Z,55.02
2019-04-06T11:53:28.583Z,55.55
2019-04-06T11:54:28.587Z,55.86
2019-04-06T11:55:28.600Z,55.86
2019-04-06T11:56:28.547Z,55.86
2019-04-06T11:57:28.594Z,55.76
2019-04-06T11:58:28.527Z,55.25
2019-04-06T11:59:28.547Z,55.35
2019-04-06T12:00:28.538Z,55.46
2019-04-06T12:01:28.854Z,55.55
2019-04-06T12:02:28.501Z,54.92
2019-04-06T12:03:28.489Z,54.79
2019-04-06T12:04:28.467Z,54.28
2019-04-06T12:05:28.460Z,53.98
2019-04-06T12:06:28.478Z,54.16
2019-04-06T12:07:28.460Z,53.65
2019-04-06T12:08:28.417Z,53.45
2019-04-06T12:09:28.399Z,53.65
2019-04-06T12:10:28.412Z,53.52
2019-04-06T12:11:28.381Z,53.96
2019-04-06T12:12:28.407Z,54.28
2019-04-06T12:13:28.398Z,54.26
2019-04-06T12:14:28.360Z,54.16
2019-04-06T12:15:28.339Z,53.96
2019-04-06T12:16:28.332Z,53.85
2019-04-06T12:17:28.751Z,54.36
2019-04-06T12:18:28.336Z,54.18
2019-04-06T12:19:28.451Z,54.69
2019-04-06T12:20:28.507Z,54.79
2019-04-06T12:21:28.296Z,54.59
2019-04-06T12:22:28.432Z,54.59
2019-04-06T12:23:28.435Z,54.90
2019-04-06T12:24:28.242Z,55.10
2019-04-06T12:25:28.228Z,54.97
2019-04-06T12:26:28.229Z,54.97
2019-04-06T12:27:28.548Z,54.03
2019-04-06T12:28:28.191Z,53.93
2019-04-06T12:29:28.584Z,53.52
2019-04-06T12:30:37.297Z,53.24
2019-04-06T12:31:29.169Z,54.18
2019-04-06T12:32:28.228Z,54.39
2019-04-06T12:33:28.496Z,54.51
2019-04-06T12:34:28.152Z,54.82
2019-04-06T12:35:28.327Z,54.59
2019-04-06T12:36:28.446Z,54.28
2019-04-06T12:37:28.313Z,54.08
2019-04-06T12:38:28.216Z,54.39
2019-04-06T12:39:28.085Z,54.16
2019-04-06T12:40:28.070Z,53.96
2019-04-06T12:41:28.146Z,53.52
2019-04-06T12:42:28.514Z,53.32
2019-04-06T12:43:30.803Z,53.52
2019-04-06T12:44:28.030Z,53.93
2019-04-06T12:45:28.342Z,54.16
2019-04-06T12:46:28.125Z,54.46
2019-04-06T12:47:28.053Z,54.24
2019-04-06T12:48:27.993Z,53.83
2019-04-06T12:49:28.011Z,53.42
2019-04-06T12:50:28.047Z,53.22
2019-04-06T12:51:27.958Z,53.65
2019-04-06T12:52:28.049Z,53.55